sensor_id;sensor_type;location;lat;lon;timestamp;temperature;humidity
43099;DHT22;28715;51.988;6.020;2022-11-20T00:01:13;0.30;95.10
43099;DHT22;28715;51.988;6.020;2022-11-20T00:03:40;0.30;95.10
43099;DHT22;28715;51.988;6.020;2022-11-20T00:06:14;0.30;95.10
43099;DHT22;28715;51.988;6.020;2022-11-20T00:08:40;0.30;95.20
43099;DHT22;28715;51.988;6.020;2022-11-20T00:11:11;0.20;95.00
43099;DHT22;28715;51.988;6.020;2022-11-20T00:13:37;0.20;95.00
43099;DHT22;28715;51.988;6.020;2022-11-20T00:16:05;0.20;95.20
43099;DHT22;28715;51.988;6.020;2022-11-20T00:18:32;0.20;95.20
43099;DHT22;28715;51.988;6.020;2022-11-20T00:21:04;0.20;95.40
43099;DHT22;28715;51.988;6.020;2022-11-20T00:23:30;0.30;95.40
43099;DHT22;28715;51.988;6.020;2022-11-20T00:25:56;0.30;95.30
43099;DHT22;28715;51.988;6.020;2022-11-20T00:28:25;0.20;95.30
43099;DHT22;28715;51.988;6.020;2022-11-20T00:30:51;0.20;95.20
43099;DHT22;28715;51.988;6.020;2022-11-20T00:33:16;0.10;95.50
43099;DHT22;28715;51.988;6.020;2022-11-20T00:35:42;0.10;95.60
43099;DHT22;28715;51.988;6.020;2022-11-20T00:38:07;0.10;95.40
43099;DHT22;28715;51.988;6.020;2022-11-20T00:40:33;0.10;95.50
43099;DHT22;28715;51.988;6.020;2022-11-20T00:42:58;0.00;95.70
43099;DHT22;28715;51.988;6.020;2022-11-20T00:45:24;0.00;95.80
43099;DHT22;28715;51.988;6.020;2022-11-20T00:47:49;0.10;95.80
43099;DHT22;28715;51.988;6.020;2022-11-20T00:50:15;0.10;95.80
43099;DHT22;28715;51.988;6.020;2022-11-20T00:52:41;0.00;95.70
43099;DHT22;28715;51.988;6.020;2022-11-20T00:55:06;0.00;95.70
43099;DHT22;28715;51.988;6.020;2022-11-20T00:57:32;0.00;95.80
43099;DHT22;28715;51.988;6.020;2022-11-20T00:59:57;0.00;95.90
43099;DHT22;28715;51.988;6.020;2022-11-20T01:02:23;0.00;96.10
43099;DHT22;28715;51.988;6.020;2022-11-20T01:04:48;0.00;96.10
43099;DHT22;28715;51.988;6.020;2022-11-20T01:07:14;0.00;95.90
43099;DHT22;28715;51.988;6.020;2022-11-20T01:09:40;-0.10;95.90
43099;DHT22;28715;51.988;6.020;2022-11-20T01:12:05;-0.10;95.90
43099;DHT22;28715;51.988;6.020;2022-11-20T01:14:31;-0.20;96.10
43099;DHT22;28715;51.988;6.020;2022-11-20T01:16:56;-0.20;96.20
43099;DHT22;28715;51.988;6.020;2022-11-20T01:19:23;-0.20;96.10
43099;DHT22;28715;51.988;6.020;2022-11-20T01:21:51;-0.20;95.90
43099;DHT22;28715;51.988;6.020;2022-11-20T01:24:19;-0.20;95.90
43099;DHT22;28715;51.988;6.020;2022-11-20T01:26:46;-0.20;95.90
43099;DHT22;28715;51.988;6.020;2022-11-20T01:29:23;-0.20;95.90
43099;DHT22;28715;51.988;6.020;2022-11-20T01:31:49;-0.30;95.80
43099;DHT22;28715;51.988;6.020;2022-11-20T01:34:19;-0.30;96.00
43099;DHT22;28715;51.988;6.020;2022-11-20T01:36:45;-0.30;96.00
43099;DHT22;28715;51.988;6.020;2022-11-20T01:39:22;-0.30;96.20
43099;DHT22;28715;51.988;6.020;2022-11-20T01:41:52;-0.30;95.90
43099;DHT22;28715;51.988;6.020;2022-11-20T01:44:56;-0.30;95.90
43099;DHT22;28715;51.988;6.020;2022-11-20T01:47:38;-0.40;96.00
43099;DHT22;28715;51.988;6.020;2022-11-20T01:50:17;-0.40;95.90
43099;DHT22;28715;51.988;6.020;2022-11-20T01:52:56;-0.50;95.70
43099;DHT22;28715;51.988;6.020;2022-11-20T01:55:27;-0.60;95.70
43099;DHT22;28715;51.988;6.020;2022-11-20T01:57:54;-0.60;95.90
43099;DHT22;28715;51.988;6.020;2022-11-20T02:00:21;-0.60;96.00
43099;DHT22;28715;51.988;6.020;2022-11-20T02:02:52;-0.60;96.10
43099;DHT22;28715;51.988;6.020;2022-11-20T02:05:38;-0.60;96.10
43099;DHT22;28715;51.988;6.020;2022-11-20T02:08:06;-0.60;96.10
43099;DHT22;28715;51.988;6.020;2022-11-20T02:10:32;-0.60;96.40
43099;DHT22;28715;51.988;6.020;2022-11-20T02:12:58;-0.60;96.10
43099;DHT22;28715;51.988;6.020;2022-11-20T02:15:44;-0.60;96.40
43099;DHT22;28715;51.988;6.020;2022-11-20T02:18:11;-0.60;95.90
43099;DHT22;28715;51.988;6.020;2022-11-20T02:20:40;-0.70;96.00
43099;DHT22;28715;51.988;6.020;2022-11-20T02:23:36;-0.60;96.10
43099;DHT22;28715;51.988;6.020;2022-11-20T02:26:05;-0.60;96.20
43099;DHT22;28715;51.988;6.020;2022-11-20T02:28:32;-0.60;96.20
43099;DHT22;28715;51.988;6.020;2022-11-20T02:30:58;-0.60;96.20
43099;DHT22;28715;51.988;6.020;2022-11-20T02:33:23;-0.60;96.10
43099;DHT22;28715;51.988;6.020;2022-11-20T02:35:49;-0.60;96.10
43099;DHT22;28715;51.988;6.020;2022-11-20T02:38:14;-0.60;96.10
43099;DHT22;28715;51.988;6.020;2022-11-20T02:40:41;-0.60;96.10
43099;DHT22;28715;51.988;6.020;2022-11-20T02:43:07;-0.60;96.00
43099;DHT22;28715;51.988;6.020;2022-11-20T02:45:33;-0.60;96.00
43099;DHT22;28715;51.988;6.020;2022-11-20T02:47:59;-0.60;96.20
43099;DHT22;28715;51.988;6.020;2022-11-20T02:50:25;-0.60;96.30
43099;DHT22;28715;51.988;6.020;2022-11-20T02:52:50;-0.60;96.30
43099;DHT22;28715;51.988;6.020;2022-11-20T02:55:16;-0.60;96.30
43099;DHT22;28715;51.988;6.020;2022-11-20T02:57:41;-0.60;96.30
43099;DHT22;28715;51.988;6.020;2022-11-20T03:00:07;-0.60;96.20
43099;DHT22;28715;51.988;6.020;2022-11-20T03:02:33;-0.60;95.90
43099;DHT22;28715;51.988;6.020;2022-11-20T03:04:59;-0.60;95.90
43099;DHT22;28715;51.988;6.020;2022-11-20T03:07:25;-0.70;96.10
43099;DHT22;28715;51.988;6.020;2022-11-20T03:09:50;-0.70;96.00
43099;DHT22;28715;51.988;6.020;2022-11-20T03:12:16;-0.70;96.00
43099;DHT22;28715;51.988;6.020;2022-11-20T03:14:42;-0.70;96.00
43099;DHT22;28715;51.988;6.020;2022-11-20T03:17:07;-0.70;96.10
43099;DHT22;28715;51.988;6.020;2022-11-20T03:19:33;-0.80;96.10
43099;DHT22;28715;51.988;6.020;2022-11-20T03:21:59;-0.80;96.00
43099;DHT22;28715;51.988;6.020;2022-11-20T03:24:25;-0.90;95.80
43099;DHT22;28715;51.988;6.020;2022-11-20T03:26:51;-0.90;96.00
43099;DHT22;28715;51.988;6.020;2022-11-20T03:29:16;-1.00;96.00
43099;DHT22;28715;51.988;6.020;2022-11-20T03:31:42;-1.00;96.30
43099;DHT22;28715;51.988;6.020;2022-11-20T03:34:10;-1.00;96.40
43099;DHT22;28715;51.988;6.020;2022-11-20T03:36:38;-1.00;96.70
43099;DHT22;28715;51.988;6.020;2022-11-20T03:39:04;-1.10;96.80
43099;DHT22;28715;51.988;6.020;2022-11-20T03:41:31;-1.10;96.90
43099;DHT22;28715;51.988;6.020;2022-11-20T03:44:02;-1.10;96.90
43099;DHT22;28715;51.988;6.020;2022-11-20T03:46:28;-1.00;97.10
43099;DHT22;28715;51.988;6.020;2022-11-20T03:48:54;-1.00;97.10
43099;DHT22;28715;51.988;6.020;2022-11-20T03:51:25;-1.00;97.20
43099;DHT22;28715;51.988;6.020;2022-11-20T03:53:53;-1.00;97.20
43099;DHT22;28715;51.988;6.020;2022-11-20T03:56:22;-1.00;97.20
43099;DHT22;28715;51.988;6.020;2022-11-20T03:58:48;-1.00;97.20
43099;DHT22;28715;51.988;6.020;2022-11-20T04:01:22;-0.90;97.10
43099;DHT22;28715;51.988;6.020;2022-11-20T04:03:48;-0.90;97.00
43099;DHT22;28715;51.988;6.020;2022-11-20T04:06:17;-0.90;97.00
43099;DHT22;28715;51.988;6.020;2022-11-20T04:08:43;-1.00;97.00
43099;DHT22;28715;51.988;6.020;2022-11-20T04:11:20;-0.90;97.00
43099;DHT22;28715;51.988;6.020;2022-11-20T04:13:51;-1.00;96.90
43099;DHT22;28715;51.988;6.020;2022-11-20T04:16:17;-1.00;96.90
43099;DHT22;28715;51.988;6.020;2022-11-20T04:18:43;-1.10;97.00
43099;DHT22;28715;51.988;6.020;2022-11-20T04:21:10;-1.10;96.90
43099;DHT22;28715;51.988;6.020;2022-11-20T04:23:36;-1.10;97.00
43099;DHT22;28715;51.988;6.020;2022-11-20T04:26:06;-1.10;97.10
43099;DHT22;28715;51.988;6.020;2022-11-20T04:28:32;-1.20;96.80
43099;DHT22;28715;51.988;6.020;2022-11-20T04:31:09;-1.20;96.60
43099;DHT22;28715;51.988;6.020;2022-11-20T04:33:35;-1.30;96.60
43099;DHT22;28715;51.988;6.020;2022-11-20T04:36:07;-1.30;96.90
43099;DHT22;28715;51.988;6.020;2022-11-20T04:38:33;-1.40;96.90
43099;DHT22;28715;51.988;6.020;2022-11-20T04:41:04;-1.40;97.00
43099;DHT22;28715;51.988;6.020;2022-11-20T04:43:30;-1.40;97.20
43099;DHT22;28715;51.988;6.020;2022-11-20T04:45:56;-1.40;97.40
43099;DHT22;28715;51.988;6.020;2022-11-20T04:48:22;-1.40;97.20
43099;DHT22;28715;51.988;6.020;2022-11-20T04:50:48;-1.50;97.30
43099;DHT22;28715;51.988;6.020;2022-11-20T04:53:14;-1.40;97.30
43099;DHT22;28715;51.988;6.020;2022-11-20T04:55:40;-1.40;97.30
43099;DHT22;28715;51.988;6.020;2022-11-20T04:58:06;-1.40;97.30
43099;DHT22;28715;51.988;6.020;2022-11-20T05:00:31;-1.40;97.30
43099;DHT22;28715;51.988;6.020;2022-11-20T05:02:57;-1.40;97.30
43099;DHT22;28715;51.988;6.020;2022-11-20T05:05:22;-1.40;97.30
43099;DHT22;28715;51.988;6.020;2022-11-20T05:07:48;-1.40;97.20
43099;DHT22;28715;51.988;6.020;2022-11-20T05:10:14;-1.30;97.40
43099;DHT22;28715;51.988;6.020;2022-11-20T05:12:39;-1.30;97.40
43099;DHT22;28715;51.988;6.020;2022-11-20T05:15:05;-1.40;97.40
43099;DHT22;28715;51.988;6.020;2022-11-20T05:17:31;-1.40;97.40
43099;DHT22;28715;51.988;6.020;2022-11-20T05:19:56;-1.40;97.40
43099;DHT22;28715;51.988;6.020;2022-11-20T05:22:22;-1.40;97.30
43099;DHT22;28715;51.988;6.020;2022-11-20T05:24:47;-1.40;97.30
43099;DHT22;28715;51.988;6.020;2022-11-20T05:27:13;-1.50;97.20
43099;DHT22;28715;51.988;6.020;2022-11-20T05:29:38;-1.50;97.30
43099;DHT22;28715;51.988;6.020;2022-11-20T05:32:04;-1.60;97.40
43099;DHT22;28715;51.988;6.020;2022-11-20T05:34:31;-1.60;97.50
43099;DHT22;28715;51.988;6.020;2022-11-20T05:36:57;-1.70;97.60
43099;DHT22;28715;51.988;6.020;2022-11-20T05:39:22;-1.70;97.80
43099;DHT22;28715;51.988;6.020;2022-11-20T05:41:48;-1.70;98.00
43099;DHT22;28715;51.988;6.020;2022-11-20T05:44:33;-1.80;98.10
43099;DHT22;28715;51.988;6.020;2022-11-20T05:46:59;-1.80;98.20
43099;DHT22;28715;51.988;6.020;2022-11-20T05:49:24;-1.80;98.20
43099;DHT22;28715;51.988;6.020;2022-11-20T05:51:50;-1.80;98.20
43099;DHT22;28715;51.988;6.020;2022-11-20T05:54:15;-1.70;98.30
43099;DHT22;28715;51.988;6.020;2022-11-20T05:56:41;-1.70;98.30
43099;DHT22;28715;51.988;6.020;2022-11-20T05:59:07;-1.80;98.30
43099;DHT22;28715;51.988;6.020;2022-11-20T06:01:32;-1.80;98.30
43099;DHT22;28715;51.988;6.020;2022-11-20T06:03:58;-1.80;98.20
43099;DHT22;28715;51.988;6.020;2022-11-20T06:06:23;-1.80;98.20
43099;DHT22;28715;51.988;6.020;2022-11-20T06:08:51;-1.80;98.20
43099;DHT22;28715;51.988;6.020;2022-11-20T06:11:17;-1.80;98.30
43099;DHT22;28715;51.988;6.020;2022-11-20T06:13:43;-1.70;98.30
43099;DHT22;28715;51.988;6.020;2022-11-20T06:16:10;-1.70;98.30
43099;DHT22;28715;51.988;6.020;2022-11-20T06:18:36;-1.70;98.10
43099;DHT22;28715;51.988;6.020;2022-11-20T06:21:06;-1.70;97.90
43099;DHT22;28715;51.988;6.020;2022-11-20T06:23:32;-1.70;97.80
43099;DHT22;28715;51.988;6.020;2022-11-20T06:26:04;-1.70;98.00
43099;DHT22;28715;51.988;6.020;2022-11-20T06:28:30;-1.80;97.90
43099;DHT22;28715;51.988;6.020;2022-11-20T06:30:56;-1.80;97.90
43099;DHT22;28715;51.988;6.020;2022-11-20T06:33:22;-1.80;97.90
43099;DHT22;28715;51.988;6.020;2022-11-20T06:35:47;-1.80;98.10
43099;DHT22;28715;51.988;6.020;2022-11-20T06:38:13;-1.80;98.20
43099;DHT22;28715;51.988;6.020;2022-11-20T06:40:42;-1.90;97.90
43099;DHT22;28715;51.988;6.020;2022-11-20T06:43:11;-1.90;97.90
43099;DHT22;28715;51.988;6.020;2022-11-20T06:45:36;-1.90;97.90
43099;DHT22;28715;51.988;6.020;2022-11-20T06:48:03;-2.00;97.70
43099;DHT22;28715;51.988;6.020;2022-11-20T06:50:28;-2.00;97.60
43099;DHT22;28715;51.988;6.020;2022-11-20T06:52:54;-2.10;97.50
43099;DHT22;28715;51.988;6.020;2022-11-20T06:55:20;-2.10;97.60
43099;DHT22;28715;51.988;6.020;2022-11-20T06:57:45;-2.10;97.90
43099;DHT22;28715;51.988;6.020;2022-11-20T07:00:11;-2.10;98.10
43099;DHT22;28715;51.988;6.020;2022-11-20T07:02:37;-2.00;98.20
43099;DHT22;28715;51.988;6.020;2022-11-20T07:05:02;-2.00;98.20
43099;DHT22;28715;51.988;6.020;2022-11-20T07:07:28;-1.90;98.20
43099;DHT22;28715;51.988;6.020;2022-11-20T07:09:53;-1.90;98.20
43099;DHT22;28715;51.988;6.020;2022-11-20T07:12:20;-1.80;98.20
43099;DHT22;28715;51.988;6.020;2022-11-20T07:14:45;-1.70;98.30
43099;DHT22;28715;51.988;6.020;2022-11-20T07:17:11;-1.70;98.30
43099;DHT22;28715;51.988;6.020;2022-11-20T07:19:37;-1.70;98.40
43099;DHT22;28715;51.988;6.020;2022-11-20T07:22:02;-1.60;98.40
43099;DHT22;28715;51.988;6.020;2022-11-20T07:24:28;-1.60;98.50
43099;DHT22;28715;51.988;6.020;2022-11-20T07:26:53;-1.50;98.70
43099;DHT22;28715;51.988;6.020;2022-11-20T07:29:19;-1.50;98.80
43099;DHT22;28715;51.988;6.020;2022-11-20T07:31:44;-1.40;99.00
43099;DHT22;28715;51.988;6.020;2022-11-20T07:34:10;-1.40;99.10
43099;DHT22;28715;51.988;6.020;2022-11-20T07:36:36;-1.30;99.20
43099;DHT22;28715;51.988;6.020;2022-11-20T07:39:01;-1.30;99.20
43099;DHT22;28715;51.988;6.020;2022-11-20T07:41:27;-1.30;99.20
43099;DHT22;28715;51.988;6.020;2022-11-20T07:43:53;-1.20;99.20
43099;DHT22;28715;51.988;6.020;2022-11-20T07:46:18;-1.20;99.20
43099;DHT22;28715;51.988;6.020;2022-11-20T07:48:44;-1.10;99.20
43099;DHT22;28715;51.988;6.020;2022-11-20T07:51:09;-1.10;99.20
43099;DHT22;28715;51.988;6.020;2022-11-20T07:53:35;-1.10;99.20
43099;DHT22;28715;51.988;6.020;2022-11-20T07:56:01;-1.00;99.10
43099;DHT22;28715;51.988;6.020;2022-11-20T07:58:29;-1.00;99.00
43099;DHT22;28715;51.988;6.020;2022-11-20T08:00:55;-1.00;98.90
43099;DHT22;28715;51.988;6.020;2022-11-20T08:03:21;-1.10;98.90
43099;DHT22;28715;51.988;6.020;2022-11-20T08:05:47;-1.10;99.10
43099;DHT22;28715;51.988;6.020;2022-11-20T08:08:12;-1.10;99.20
43099;DHT22;28715;51.988;6.020;2022-11-20T08:10:38;-1.10;99.40
43099;DHT22;28715;51.988;6.020;2022-11-20T08:13:03;-0.90;99.40
43099;DHT22;28715;51.988;6.020;2022-11-20T08:15:49;-0.80;99.20
43099;DHT22;28715;51.988;6.020;2022-11-20T08:18:18;-0.60;99.20
43099;DHT22;28715;51.988;6.020;2022-11-20T08:20:44;-0.30;99.10
43099;DHT22;28715;51.988;6.020;2022-11-20T08:23:09;-0.10;99.00
43099;DHT22;28715;51.988;6.020;2022-11-20T08:25:36;0.10;98.90
43099;DHT22;28715;51.988;6.020;2022-11-20T08:28:04;0.20;98.80
43099;DHT22;28715;51.988;6.020;2022-11-20T08:30:30;0.30;98.70
43099;DHT22;28715;51.988;6.020;2022-11-20T08:33:01;0.40;98.50
43099;DHT22;28715;51.988;6.020;2022-11-20T08:35:27;0.40;98.30
43099;DHT22;28715;51.988;6.020;2022-11-20T08:37:52;0.50;98.40
43099;DHT22;28715;51.988;6.020;2022-11-20T08:40:18;0.60;98.00
43099;DHT22;28715;51.988;6.020;2022-11-20T08:42:48;0.70;97.90
43099;DHT22;28715;51.988;6.020;2022-11-20T08:45:14;0.70;97.70
43099;DHT22;28715;51.988;6.020;2022-11-20T08:47:40;0.80;97.40
43099;DHT22;28715;51.988;6.020;2022-11-20T08:50:06;0.80;97.30
43099;DHT22;28715;51.988;6.020;2022-11-20T08:52:32;0.90;97.60
43099;DHT22;28715;51.988;6.020;2022-11-20T08:54:57;0.90;97.40
43099;DHT22;28715;51.988;6.020;2022-11-20T08:57:23;1.00;97.50
43099;DHT22;28715;51.988;6.020;2022-11-20T08:59:48;1.10;97.30
43099;DHT22;28715;51.988;6.020;2022-11-20T09:02:14;1.10;97.20
43099;DHT22;28715;51.988;6.020;2022-11-20T09:04:40;1.10;97.20
43099;DHT22;28715;51.988;6.020;2022-11-20T09:07:06;1.20;97.10
43099;DHT22;28715;51.988;6.020;2022-11-20T09:09:31;1.20;97.10
43099;DHT22;28715;51.988;6.020;2022-11-20T09:11:58;1.20;97.10
43099;DHT22;28715;51.988;6.020;2022-11-20T09:14:23;1.30;97.10
43099;DHT22;28715;51.988;6.020;2022-11-20T09:16:54;1.30;97.10
43099;DHT22;28715;51.988;6.020;2022-11-20T09:19:20;1.40;97.30
43099;DHT22;28715;51.988;6.020;2022-11-20T09:21:45;1.70;97.50
43099;DHT22;28715;51.988;6.020;2022-11-20T09:24:11;1.90;97.30
43099;DHT22;28715;51.988;6.020;2022-11-20T09:26:36;2.10;96.60
43099;DHT22;28715;51.988;6.020;2022-11-20T09:29:02;2.20;95.90
43099;DHT22;28715;51.988;6.020;2022-11-20T09:31:27;2.20;95.80
43099;DHT22;28715;51.988;6.020;2022-11-20T09:33:53;2.20;96.00
43099;DHT22;28715;51.988;6.020;2022-11-20T09:36:19;2.20;95.90
43099;DHT22;28715;51.988;6.020;2022-11-20T09:38:45;2.10;96.00
43099;DHT22;28715;51.988;6.020;2022-11-20T09:46:57;2.10;95.80
43099;DHT22;28715;51.988;6.020;2022-11-20T09:49:34;2.10;95.80
43099;DHT22;28715;51.988;6.020;2022-11-20T09:52:32;2.10;95.80
43099;DHT22;28715;51.988;6.020;2022-11-20T09:55:02;2.10;95.90
43099;DHT22;28715;51.988;6.020;2022-11-20T09:57:37;2.10;96.00
43099;DHT22;28715;51.988;6.020;2022-11-20T10:00:06;2.10;96.00
43099;DHT22;28715;51.988;6.020;2022-11-20T10:03:29;2.10;95.90
43099;DHT22;28715;51.988;6.020;2022-11-20T10:05:44;2.10;96.00
43099;DHT22;28715;51.988;6.020;2022-11-20T10:08:21;2.10;96.20
43099;DHT22;28715;51.988;6.020;2022-11-20T10:21:38;2.40;96.80
43099;DHT22;28715;51.988;6.020;2022-11-20T10:29:43;2.50;96.30
43099;DHT22;28715;51.988;6.020;2022-11-20T10:32:16;2.60;96.30
43099;DHT22;28715;51.988;6.020;2022-11-20T10:34:54;2.70;96.40
43099;DHT22;28715;51.988;6.020;2022-11-20T10:37:25;2.80;96.60
43099;DHT22;28715;51.988;6.020;2022-11-20T10:40:05;2.80;96.40
43099;DHT22;28715;51.988;6.020;2022-11-20T10:42:51;2.80;96.50
43099;DHT22;28715;51.988;6.020;2022-11-20T10:48:01;3.00;96.50
43099;DHT22;28715;51.988;6.020;2022-11-20T10:50:36;3.20;96.60
43099;DHT22;28715;51.988;6.020;2022-11-20T10:55:48;3.60;96.10
43099;DHT22;28715;51.988;6.020;2022-11-20T11:00:44;3.70;95.60
43099;DHT22;28715;51.988;6.020;2022-11-20T11:03:22;3.80;95.80
43099;DHT22;28715;51.988;6.020;2022-11-20T11:05:54;3.90;95.90
43099;DHT22;28715;51.988;6.020;2022-11-20T11:08:21;4.00;96.10
43099;DHT22;28715;51.988;6.020;2022-11-20T11:10:53;4.10;95.60
43099;DHT22;28715;51.988;6.020;2022-11-20T11:13:27;4.10;95.50
43099;DHT22;28715;51.988;6.020;2022-11-20T11:15:55;4.10;95.50
43099;DHT22;28715;51.988;6.020;2022-11-20T11:18:32;4.10;95.40
43099;DHT22;28715;51.988;6.020;2022-11-20T11:21:00;4.00;95.40
43099;DHT22;28715;51.988;6.020;2022-11-20T11:23:36;3.90;95.40
43099;DHT22;28715;51.988;6.020;2022-11-20T11:26:07;3.80;95.80
43099;DHT22;28715;51.988;6.020;2022-11-20T11:28:33;3.60;96.40
43099;DHT22;28715;51.988;6.020;2022-11-20T11:30:59;3.60;96.40
43099;DHT22;28715;51.988;6.020;2022-11-20T11:33:26;3.50;96.70
43099;DHT22;28715;51.988;6.020;2022-11-20T11:35:55;3.40;96.90
43099;DHT22;28715;51.988;6.020;2022-11-20T11:38:41;3.40;97.10
43099;DHT22;28715;51.988;6.020;2022-11-20T11:41:16;3.40;97.50
43099;DHT22;28715;51.988;6.020;2022-11-20T11:43:55;3.30;97.80
43099;DHT22;28715;51.988;6.020;2022-11-20T11:46:49;3.40;98.00
43099;DHT22;28715;51.988;6.020;2022-11-20T11:49:18;3.30;98.10
43099;DHT22;28715;51.988;6.020;2022-11-20T11:52:18;3.30;98.20
43099;DHT22;28715;51.988;6.020;2022-11-20T11:54:53;3.40;98.30
43099;DHT22;28715;51.988;6.020;2022-11-20T12:00:16;3.50;98.60
43099;DHT22;28715;51.988;6.020;2022-11-20T12:05:35;3.50;98.60
43099;DHT22;28715;51.988;6.020;2022-11-20T12:11:13;3.60;98.70
43099;DHT22;28715;51.988;6.020;2022-11-20T12:13:57;3.60;98.90
43099;DHT22;28715;51.988;6.020;2022-11-20T12:16:24;3.60;98.70
43099;DHT22;28715;51.988;6.020;2022-11-20T12:18:51;3.60;98.50
43099;DHT22;28715;51.988;6.020;2022-11-20T12:24:10;3.60;98.50
43099;DHT22;28715;51.988;6.020;2022-11-20T12:27:04;3.60;98.50
43099;DHT22;28715;51.988;6.020;2022-11-20T12:29:55;3.60;98.40
43099;DHT22;28715;51.988;6.020;2022-11-20T12:35:20;3.50;98.80
43099;DHT22;28715;51.988;6.020;2022-11-20T12:44:38;3.50;99.40
43099;DHT22;28715;51.988;6.020;2022-11-20T12:49:43;3.50;99.70
43099;DHT22;28715;51.988;6.020;2022-11-20T13:03:06;3.50;99.90
43099;DHT22;28715;51.988;6.020;2022-11-20T13:08:24;3.80;99.90
43099;DHT22;28715;51.988;6.020;2022-11-20T13:18:55;3.90;99.90
43099;DHT22;28715;51.988;6.020;2022-11-20T13:21:22;3.90;99.90
43099;DHT22;28715;51.988;6.020;2022-11-20T13:24:32;3.90;99.90
43099;DHT22;28715;51.988;6.020;2022-11-20T13:29:27;3.80;99.90
43099;DHT22;28715;51.988;6.020;2022-11-20T13:32:06;3.80;99.90
43099;DHT22;28715;51.988;6.020;2022-11-20T13:34:32;3.90;99.90
43099;DHT22;28715;51.988;6.020;2022-11-20T13:37:00;3.70;99.90
43099;DHT22;28715;51.988;6.020;2022-11-20T13:39:31;3.70;99.90
43099;DHT22;28715;51.988;6.020;2022-11-20T13:42:20;3.70;99.90
43099;DHT22;28715;51.988;6.020;2022-11-20T13:45:01;3.60;99.90
43099;DHT22;28715;51.988;6.020;2022-11-20T13:47:28;3.60;99.90
43099;DHT22;28715;51.988;6.020;2022-11-20T13:49:56;3.70;99.90
43099;DHT22;28715;51.988;6.020;2022-11-20T13:58:40;3.80;99.90
43099;DHT22;28715;51.988;6.020;2022-11-20T14:01:29;3.70;99.90
43099;DHT22;28715;51.988;6.020;2022-11-20T14:03:57;3.70;99.90
43099;DHT22;28715;51.988;6.020;2022-11-20T14:06:34;3.80;99.90
43099;DHT22;28715;51.988;6.020;2022-11-20T14:09:04;3.80;99.90
43099;DHT22;28715;51.988;6.020;2022-11-20T14:11:30;3.80;99.90
43099;DHT22;28715;51.988;6.020;2022-11-20T14:16:33;3.80;99.90
43099;DHT22;28715;51.988;6.020;2022-11-20T14:21:48;3.70;99.90
43099;DHT22;28715;51.988;6.020;2022-11-20T14:24:19;3.70;99.90
43099;DHT22;28715;51.988;6.020;2022-11-20T14:26:47;3.70;99.90
43099;DHT22;28715;51.988;6.020;2022-11-20T14:29:26;3.70;99.90
43099;DHT22;28715;51.988;6.020;2022-11-20T14:31:53;3.80;99.90
43099;DHT22;28715;51.988;6.020;2022-11-20T14:34:27;3.70;99.90
43099;DHT22;28715;51.988;6.020;2022-11-20T14:37:04;3.80;99.90
43099;DHT22;28715;51.988;6.020;2022-11-20T14:39:52;3.90;99.90
43099;DHT22;28715;51.988;6.020;2022-11-20T14:42:20;3.90;99.90
43099;DHT22;28715;51.988;6.020;2022-11-20T14:44:48;3.90;99.90
43099;DHT22;28715;51.988;6.020;2022-11-20T14:47:21;3.90;99.90
43099;DHT22;28715;51.988;6.020;2022-11-20T14:49:47;3.80;99.90
43099;DHT22;28715;51.988;6.020;2022-11-20T14:52:17;3.90;99.90
43099;DHT22;28715;51.988;6.020;2022-11-20T14:54:48;4.00;99.90
43099;DHT22;28715;51.988;6.020;2022-11-20T15:02:41;4.00;99.90
43099;DHT22;28715;51.988;6.020;2022-11-20T15:05:07;4.00;99.90
43099;DHT22;28715;51.988;6.020;2022-11-20T15:07:41;4.00;99.90
43099;DHT22;28715;51.988;6.020;2022-11-20T15:10:12;4.00;99.90
43099;DHT22;28715;51.988;6.020;2022-11-20T15:12:48;4.00;99.90
43099;DHT22;28715;51.988;6.020;2022-11-20T15:15:19;4.00;99.90
43099;DHT22;28715;51.988;6.020;2022-11-20T15:17:46;4.10;99.90
43099;DHT22;28715;51.988;6.020;2022-11-20T15:20:14;4.00;99.90
43099;DHT22;28715;51.988;6.020;2022-11-20T15:22:41;4.10;99.90
43099;DHT22;28715;51.988;6.020;2022-11-20T15:25:17;4.10;99.90
43099;DHT22;28715;51.988;6.020;2022-11-20T15:27:43;4.10;99.90
43099;DHT22;28715;51.988;6.020;2022-11-20T15:30:18;4.10;99.90
43099;DHT22;28715;51.988;6.020;2022-11-20T15:32:45;4.10;99.90
43099;DHT22;28715;51.988;6.020;2022-11-20T15:35:11;4.10;99.90
43099;DHT22;28715;51.988;6.020;2022-11-20T15:37:37;4.10;99.90
43099;DHT22;28715;51.988;6.020;2022-11-20T15:40:04;4.10;99.90
43099;DHT22;28715;51.988;6.020;2022-11-20T15:42:30;4.10;99.90
43099;DHT22;28715;51.988;6.020;2022-11-20T15:44:55;4.10;99.90
43099;DHT22;28715;51.988;6.020;2022-11-20T15:47:25;4.10;99.90
43099;DHT22;28715;51.988;6.020;2022-11-20T15:49:52;4.10;99.90
43099;DHT22;28715;51.988;6.020;2022-11-20T15:52:17;4.00;99.90
43099;DHT22;28715;51.988;6.020;2022-11-20T15:54:43;4.10;99.90
43099;DHT22;28715;51.988;6.020;2022-11-20T15:57:08;4.10;99.90
43099;DHT22;28715;51.988;6.020;2022-11-20T15:59:34;4.10;99.90
43099;DHT22;28715;51.988;6.020;2022-11-20T16:02:02;4.10;99.90
43099;DHT22;28715;51.988;6.020;2022-11-20T16:04:27;4.20;99.90
43099;DHT22;28715;51.988;6.020;2022-11-20T16:06:53;4.30;99.90
43099;DHT22;28715;51.988;6.020;2022-11-20T16:09:19;4.30;99.90
43099;DHT22;28715;51.988;6.020;2022-11-20T16:11:45;4.30;99.90
43099;DHT22;28715;51.988;6.020;2022-11-20T16:14:11;4.40;99.90
43099;DHT22;28715;51.988;6.020;2022-11-20T16:16:55;4.50;99.90
43099;DHT22;28715;51.988;6.020;2022-11-20T16:19:20;4.50;99.90
43099;DHT22;28715;51.988;6.020;2022-11-20T16:21:46;4.30;99.90
43099;DHT22;28715;51.988;6.020;2022-11-20T16:24:13;4.30;99.90
43099;DHT22;28715;51.988;6.020;2022-11-20T16:26:40;4.30;99.90
43099;DHT22;28715;51.988;6.020;2022-11-20T16:29:06;4.30;99.90
43099;DHT22;28715;51.988;6.020;2022-11-20T16:31:32;4.30;99.90
43099;DHT22;28715;51.988;6.020;2022-11-20T16:34:01;4.30;99.90
43099;DHT22;28715;51.988;6.020;2022-11-20T16:36:28;4.30;99.90
43099;DHT22;28715;51.988;6.020;2022-11-20T16:38:56;4.30;99.90
43099;DHT22;28715;51.988;6.020;2022-11-20T16:41:22;4.30;99.90
43099;DHT22;28715;51.988;6.020;2022-11-20T16:43:50;4.20;99.90
43099;DHT22;28715;51.988;6.020;2022-11-20T16:46:19;4.30;99.90
43099;DHT22;28715;51.988;6.020;2022-11-20T16:48:46;4.20;99.90
43099;DHT22;28715;51.988;6.020;2022-11-20T16:51:17;4.20;99.90
43099;DHT22;28715;51.988;6.020;2022-11-20T16:53:42;4.30;99.90
43099;DHT22;28715;51.988;6.020;2022-11-20T16:56:17;4.30;99.90
43099;DHT22;28715;51.988;6.020;2022-11-20T16:58:44;4.30;99.90
43099;DHT22;28715;51.988;6.020;2022-11-20T17:01:12;4.30;99.90
43099;DHT22;28715;51.988;6.020;2022-11-20T17:03:40;4.30;99.90
43099;DHT22;28715;51.988;6.020;2022-11-20T17:06:22;4.30;99.90
43099;DHT22;28715;51.988;6.020;2022-11-20T17:08:48;4.30;99.90
43099;DHT22;28715;51.988;6.020;2022-11-20T17:11:16;4.30;99.90
43099;DHT22;28715;51.988;6.020;2022-11-20T17:13:42;4.30;99.90
43099;DHT22;28715;51.988;6.020;2022-11-20T17:16:10;4.20;99.90
43099;DHT22;28715;51.988;6.020;2022-11-20T17:18:36;4.30;99.90
43099;DHT22;28715;51.988;6.020;2022-11-20T17:21:02;4.20;99.90
43099;DHT22;28715;51.988;6.020;2022-11-20T17:23:34;4.30;99.90
43099;DHT22;28715;51.988;6.020;2022-11-20T17:26:04;4.30;99.90